sensor_id;sensor_type;location;lat;lon;timestamp;temperature;humidity
10583;DHT22;33679;51.218;6.786;2022-10-31T00:00:17;20.10;99.90
10583;DHT22;33679;51.218;6.786;2022-10-31T00:02:44;20.10;99.90
10583;DHT22;33679;51.218;6.786;2022-10-31T00:05:12;20.10;99.90
10583;DHT22;33679;51.218;6.786;2022-10-31T00:07:41;20.10;99.90
10583;DHT22;33679;51.218;6.786;2022-10-31T00:10:10;20.10;99.90
10583;DHT22;33679;51.218;6.786;2022-10-31T00:12:39;20.10;99.90
10583;DHT22;33679;51.218;6.786;2022-10-31T00:15:07;20.10;99.90
10583;DHT22;33679;51.218;6.786;2022-10-31T00:17:44;20.00;99.90
10583;DHT22;33679;51.218;6.786;2022-10-31T00:20:11;20.00;99.90
10583;DHT22;33679;51.218;6.786;2022-10-31T00:22:41;20.00;99.90
10583;DHT22;33679;51.218;6.786;2022-10-31T00:25:09;19.90;99.90
10583;DHT22;33679;51.218;6.786;2022-10-31T00:27:37;19.90;99.90
10583;DHT22;33679;51.218;6.786;2022-10-31T00:30:08;20.00;99.90
10583;DHT22;33679;51.218;6.786;2022-10-31T00:32:36;19.90;99.90
10583;DHT22;33679;51.218;6.786;2022-10-31T00:35:04;19.90;99.90
10583;DHT22;33679;51.218;6.786;2022-10-31T00:37:31;19.90;99.90
10583;DHT22;33679;51.218;6.786;2022-10-31T00:40:03;19.90;99.90
10583;DHT22;33679;51.218;6.786;2022-10-31T00:42:31;19.90;99.90
10583;DHT22;33679;51.218;6.786;2022-10-31T00:44:58;19.80;99.90
10583;DHT22;33679;51.218;6.786;2022-10-31T00:47:26;19.80;99.90
10583;DHT22;33679;51.218;6.786;2022-10-31T00:49:53;19.80;99.90
10583;DHT22;33679;51.218;6.786;2022-10-31T00:52:21;19.70;99.90
10583;DHT22;33679;51.218;6.786;2022-10-31T00:54:48;19.70;99.90
10583;DHT22;33679;51.218;6.786;2022-10-31T00:57:16;19.70;99.90
10583;DHT22;33679;51.218;6.786;2022-10-31T00:59:47;19.70;99.90
10583;DHT22;33679;51.218;6.786;2022-10-31T01:02:15;19.60;99.90
10583;DHT22;33679;51.218;6.786;2022-10-31T01:04:43;19.60;99.90
10583;DHT22;33679;51.218;6.786;2022-10-31T01:07:16;19.60;99.90
10583;DHT22;33679;51.218;6.786;2022-10-31T01:09:44;19.60;99.90
10583;DHT22;33679;51.218;6.786;2022-10-31T01:12:12;19.60;99.90
10583;DHT22;33679;51.218;6.786;2022-10-31T01:14:44;19.60;99.90
10583;DHT22;33679;51.218;6.786;2022-10-31T01:17:11;19.60;99.90
10583;DHT22;33679;51.218;6.786;2022-10-31T01:19:39;19.60;99.90
10583;DHT22;33679;51.218;6.786;2022-10-31T01:22:09;19.60;99.90
10583;DHT22;33679;51.218;6.786;2022-10-31T01:24:36;19.60;99.90
10583;DHT22;33679;51.218;6.786;2022-10-31T01:27:04;19.60;99.90
10583;DHT22;33679;51.218;6.786;2022-10-31T01:29:36;19.60;99.90
10583;DHT22;33679;51.218;6.786;2022-10-31T01:32:09;19.50;99.90
10583;DHT22;33679;51.218;6.786;2022-10-31T01:34:36;19.50;99.90
10583;DHT22;33679;51.218;6.786;2022-10-31T01:37:04;19.40;99.90
10583;DHT22;33679;51.218;6.786;2022-10-31T01:39:32;19.40;99.90
10583;DHT22;33679;51.218;6.786;2022-10-31T01:41:59;19.30;99.90
10583;DHT22;33679;51.218;6.786;2022-10-31T01:44:51;19.30;99.90
10583;DHT22;33679;51.218;6.786;2022-10-31T01:47:28;19.30;99.90
10583;DHT22;33679;51.218;6.786;2022-10-31T01:50:01;19.30;99.90
10583;DHT22;33679;51.218;6.786;2022-10-31T01:52:32;19.20;99.90
10583;DHT22;33679;51.218;6.786;2022-10-31T01:55:10;19.20;99.90
10583;DHT22;33679;51.218;6.786;2022-10-31T01:57:43;19.20;99.90
10583;DHT22;33679;51.218;6.786;2022-10-31T02:00:12;19.20;99.90
10583;DHT22;33679;51.218;6.786;2022-10-31T02:02:43;19.20;99.90
10583;DHT22;33679;51.218;6.786;2022-10-31T02:05:15;19.20;99.90
10583;DHT22;33679;51.218;6.786;2022-10-31T02:07:48;19.10;99.90
10583;DHT22;33679;51.218;6.786;2022-10-31T02:10:20;19.10;99.90
10583;DHT22;33679;51.218;6.786;2022-10-31T02:12:49;19.10;99.90
10583;DHT22;33679;51.218;6.786;2022-10-31T02:15:17;19.10;99.90
10583;DHT22;33679;51.218;6.786;2022-10-31T02:17:47;19.10;99.90
10583;DHT22;33679;51.218;6.786;2022-10-31T02:20:22;19.00;99.90
10583;DHT22;33679;51.218;6.786;2022-10-31T02:23:13;18.90;99.90
10583;DHT22;33679;51.218;6.786;2022-10-31T02:25:56;18.90;99.90
10583;DHT22;33679;51.218;6.786;2022-10-31T02:28:46;18.80;99.90
10583;DHT22;33679;51.218;6.786;2022-10-31T02:31:27;18.80;99.90
10583;DHT22;33679;51.218;6.786;2022-10-31T02:34:05;18.80;99.90
10583;DHT22;33679;51.218;6.786;2022-10-31T02:36:46;18.80;99.90
10583;DHT22;33679;51.218;6.786;2022-10-31T02:39:21;18.80;99.90
10583;DHT22;33679;51.218;6.786;2022-10-31T02:42:01;18.80;99.90
10583;DHT22;33679;51.218;6.786;2022-10-31T02:44:36;18.80;99.90
10583;DHT22;33679;51.218;6.786;2022-10-31T02:47:10;18.80;99.90
10583;DHT22;33679;51.218;6.786;2022-10-31T02:49:42;18.80;99.90
10583;DHT22;33679;51.218;6.786;2022-10-31T02:52:17;18.80;99.90
10583;DHT22;33679;51.218;6.786;2022-10-31T02:54:46;18.80;99.90
10583;DHT22;33679;51.218;6.786;2022-10-31T02:57:18;18.80;99.90
10583;DHT22;33679;51.218;6.786;2022-10-31T02:59:48;18.80;99.90
10583;DHT22;33679;51.218;6.786;2022-10-31T03:02:33;18.80;99.90
10583;DHT22;33679;51.218;6.786;2022-10-31T03:05:35;18.90;99.90
10583;DHT22;33679;51.218;6.786;2022-10-31T03:08:11;18.90;99.90
10583;DHT22;33679;51.218;6.786;2022-10-31T03:10:44;18.80;99.90
10583;DHT22;33679;51.218;6.786;2022-10-31T03:13:20;18.80;99.90
10583;DHT22;33679;51.218;6.786;2022-10-31T03:15:53;18.80;99.90
10583;DHT22;33679;51.218;6.786;2022-10-31T03:18:26;18.80;99.90
10583;DHT22;33679;51.218;6.786;2022-10-31T03:20:58;18.80;99.90
10583;DHT22;33679;51.218;6.786;2022-10-31T03:23:32;18.80;99.90
10583;DHT22;33679;51.218;6.786;2022-10-31T03:26:04;18.80;99.90
10583;DHT22;33679;51.218;6.786;2022-10-31T03:28:43;18.80;99.90
10583;DHT22;33679;51.218;6.786;2022-10-31T03:31:17;18.80;99.90
10583;DHT22;33679;51.218;6.786;2022-10-31T03:33:48;18.70;99.90
10583;DHT22;33679;51.218;6.786;2022-10-31T03:36:17;18.70;99.90
10583;DHT22;33679;51.218;6.786;2022-10-31T03:38:46;18.70;99.90
10583;DHT22;33679;51.218;6.786;2022-10-31T03:41:21;18.70;99.90
10583;DHT22;33679;51.218;6.786;2022-10-31T03:43:54;18.60;99.90
10583;DHT22;33679;51.218;6.786;2022-10-31T03:46:28;18.60;99.90
10583;DHT22;33679;51.218;6.786;2022-10-31T03:48:59;18.50;99.90
10583;DHT22;33679;51.218;6.786;2022-10-31T03:51:33;18.50;99.90
10583;DHT22;33679;51.218;6.786;2022-10-31T03:54:08;18.50;99.90
10583;DHT22;33679;51.218;6.786;2022-10-31T03:56:43;18.40;99.90
10583;DHT22;33679;51.218;6.786;2022-10-31T03:59:15;18.30;99.90
10583;DHT22;33679;51.218;6.786;2022-10-31T04:01:49;18.30;99.90
10583;DHT22;33679;51.218;6.786;2022-10-31T04:04:19;18.30;99.90
10583;DHT22;33679;51.218;6.786;2022-10-31T04:06:50;18.30;99.90
10583;DHT22;33679;51.218;6.786;2022-10-31T04:09:19;18.30;99.90
10583;DHT22;33679;51.218;6.786;2022-10-31T04:11:51;18.20;99.90
10583;DHT22;33679;51.218;6.786;2022-10-31T04:14:47;18.20;99.90
10583;DHT22;33679;51.218;6.786;2022-10-31T04:17:21;18.10;99.90
10583;DHT22;33679;51.218;6.786;2022-10-31T04:19:51;18.10;99.90
10583;DHT22;33679;51.218;6.786;2022-10-31T04:22:18;18.00;99.90
10583;DHT22;33679;51.218;6.786;2022-10-31T04:24:46;18.00;99.90
10583;DHT22;33679;51.218;6.786;2022-10-31T04:27:16;18.00;99.90
10583;DHT22;33679;51.218;6.786;2022-10-31T04:29:44;18.00;99.90
10583;DHT22;33679;51.218;6.786;2022-10-31T04:32:11;18.00;99.90
10583;DHT22;33679;51.218;6.786;2022-10-31T04:34:39;18.00;99.90
10583;DHT22;33679;51.218;6.786;2022-10-31T04:37:10;18.00;99.90
10583;DHT22;33679;51.218;6.786;2022-10-31T04:39:38;18.10;99.90
10583;DHT22;33679;51.218;6.786;2022-10-31T04:42:24;18.10;99.90
10583;DHT22;33679;51.218;6.786;2022-10-31T04:44:51;18.10;99.90
10583;DHT22;33679;51.218;6.786;2022-10-31T04:47:19;18.10;99.90
10583;DHT22;33679;51.218;6.786;2022-10-31T04:49:47;18.10;99.90
10583;DHT22;33679;51.218;6.786;2022-10-31T04:52:16;18.10;99.90
10583;DHT22;33679;51.218;6.786;2022-10-31T04:54:43;18.10;99.90
10583;DHT22;33679;51.218;6.786;2022-10-31T04:57:29;18.10;99.90
10583;DHT22;33679;51.218;6.786;2022-10-31T05:00:01;18.10;99.90
10583;DHT22;33679;51.218;6.786;2022-10-31T05:02:29;18.10;99.90
10583;DHT22;33679;51.218;6.786;2022-10-31T05:04:58;18.10;99.90
10583;DHT22;33679;51.218;6.786;2022-10-31T05:07:30;18.10;99.90
10583;DHT22;33679;51.218;6.786;2022-10-31T05:09:57;18.10;99.90
10583;DHT22;33679;51.218;6.786;2022-10-31T05:12:24;18.10;99.90
10583;DHT22;33679;51.218;6.786;2022-10-31T05:15:08;18.10;99.90
10583;DHT22;33679;51.218;6.786;2022-10-31T05:17:38;18.10;99.90
10583;DHT22;33679;51.218;6.786;2022-10-31T05:20:25;18.10;99.90
10583;DHT22;33679;51.218;6.786;2022-10-31T05:23:14;18.10;99.90
10583;DHT22;33679;51.218;6.786;2022-10-31T05:25:41;18.10;99.90
10583;DHT22;33679;51.218;6.786;2022-10-31T05:28:12;18.10;99.90
10583;DHT22;33679;51.218;6.786;2022-10-31T05:30:39;18.10;99.90
10583;DHT22;33679;51.218;6.786;2022-10-31T05:33:10;18.10;99.90
10583;DHT22;33679;51.218;6.786;2022-10-31T05:35:57;18.10;99.90
10583;DHT22;33679;51.218;6.786;2022-10-31T05:38:44;18.10;99.90
10583;DHT22;33679;51.218;6.786;2022-10-31T05:41:23;18.10;99.90
10583;DHT22;33679;51.218;6.786;2022-10-31T05:43:52;18.20;99.90
10583;DHT22;33679;51.218;6.786;2022-10-31T05:46:25;18.10;99.90
10583;DHT22;33679;51.218;6.786;2022-10-31T05:49:11;18.10;99.90
10583;DHT22;33679;51.218;6.786;2022-10-31T05:51:57;18.10;99.90
10583;DHT22;33679;51.218;6.786;2022-10-31T05:54:35;18.10;99.90
10583;DHT22;33679;51.218;6.786;2022-10-31T05:57:02;18.10;99.90
10583;DHT22;33679;51.218;6.786;2022-10-31T05:59:29;18.00;99.90
10583;DHT22;33679;51.218;6.786;2022-10-31T06:02:00;18.10;99.90
10583;DHT22;33679;51.218;6.786;2022-10-31T06:04:51;18.10;99.90
10583;DHT22;33679;51.218;6.786;2022-10-31T06:07:18;18.10;99.90
10583;DHT22;33679;51.218;6.786;2022-10-31T06:09:47;18.10;99.90
10583;DHT22;33679;51.218;6.786;2022-10-31T06:12:15;18.10;99.90
10583;DHT22;33679;51.218;6.786;2022-10-31T06:15:17;18.10;99.90
10583;DHT22;33679;51.218;6.786;2022-10-31T06:17:46;18.10;99.90
10583;DHT22;33679;51.218;6.786;2022-10-31T06:20:24;18.10;99.90
10583;DHT22;33679;51.218;6.786;2022-10-31T06:22:58;18.10;99.90
10583;DHT22;33679;51.218;6.786;2022-10-31T06:25:27;18.10;99.90
10583;DHT22;33679;51.218;6.786;2022-10-31T06:27:55;18.10;99.90
10583;DHT22;33679;51.218;6.786;2022-10-31T06:30:27;18.10;99.90
10583;DHT22;33679;51.218;6.786;2022-10-31T06:32:55;18.10;99.90
10583;DHT22;33679;51.218;6.786;2022-10-31T06:35:30;18.10;99.90
10583;DHT22;33679;51.218;6.786;2022-10-31T06:37:59;18.10;99.90
10583;DHT22;33679;51.218;6.786;2022-10-31T06:40:34;18.10;99.90
10583;DHT22;33679;51.218;6.786;2022-10-31T06:43:16;18.10;99.90
10583;DHT22;33679;51.218;6.786;2022-10-31T06:45:45;18.10;99.90
10583;DHT22;33679;51.218;6.786;2022-10-31T06:48:28;18.10;99.90
10583;DHT22;33679;51.218;6.786;2022-10-31T06:51:19;18.10;99.90
10583;DHT22;33679;51.218;6.786;2022-10-31T06:53:51;18.10;99.90
10583;DHT22;33679;51.218;6.786;2022-10-31T06:56:20;18.10;99.90
10583;DHT22;33679;51.218;6.786;2022-10-31T06:58:52;18.10;99.90
10583;DHT22;33679;51.218;6.786;2022-10-31T07:01:32;18.10;99.90
10583;DHT22;33679;51.218;6.786;2022-10-31T07:04:00;18.10;99.90
10583;DHT22;33679;51.218;6.786;2022-10-31T07:06:32;18.10;99.90
10583;DHT22;33679;51.218;6.786;2022-10-31T07:08:59;18.10;99.90
10583;DHT22;33679;51.218;6.786;2022-10-31T07:11:27;18.10;99.90
10583;DHT22;33679;51.218;6.786;2022-10-31T07:13:58;18.10;99.90
10583;DHT22;33679;51.218;6.786;2022-10-31T07:16:26;18.10;99.90
10583;DHT22;33679;51.218;6.786;2022-10-31T07:18:53;18.20;99.90
10583;DHT22;33679;51.218;6.786;2022-10-31T07:21:20;18.20;99.90
10583;DHT22;33679;51.218;6.786;2022-10-31T07:23:49;18.20;99.90
10583;DHT22;33679;51.218;6.786;2022-10-31T07:26:41;18.20;99.90
10583;DHT22;33679;51.218;6.786;2022-10-31T07:29:10;18.20;99.90
10583;DHT22;33679;51.218;6.786;2022-10-31T07:31:38;18.20;99.90
10583;DHT22;33679;51.218;6.786;2022-10-31T07:34:13;18.20;99.90
10583;DHT22;33679;51.218;6.786;2022-10-31T07:36:59;18.20;99.90
10583;DHT22;33679;51.218;6.786;2022-10-31T07:39:28;18.20;99.90
10583;DHT22;33679;51.218;6.786;2022-10-31T07:41:59;18.20;99.90
10583;DHT22;33679;51.218;6.786;2022-10-31T07:44:28;18.30;99.90
10583;DHT22;33679;51.218;6.786;2022-10-31T07:47:05;18.30;99.90
10583;DHT22;33679;51.218;6.786;2022-10-31T07:49:51;18.40;99.90
10583;DHT22;33679;51.218;6.786;2022-10-31T07:52:37;18.40;99.90
10583;DHT22;33679;51.218;6.786;2022-10-31T07:55:23;18.40;99.90
10583;DHT22;33679;51.218;6.786;2022-10-31T07:57:57;18.50;99.90
10583;DHT22;33679;51.218;6.786;2022-10-31T08:00:25;18.50;99.90
10583;DHT22;33679;51.218;6.786;2022-10-31T08:03:00;18.50;99.90
10583;DHT22;33679;51.218;6.786;2022-10-31T08:05:46;18.50;99.90
10583;DHT22;33679;51.218;6.786;2022-10-31T08:08:34;18.60;99.90
10583;DHT22;33679;51.218;6.786;2022-10-31T08:11:01;18.60;99.90
10583;DHT22;33679;51.218;6.786;2022-10-31T08:13:34;18.60;99.90
10583;DHT22;33679;51.218;6.786;2022-10-31T08:16:02;18.70;99.90
10583;DHT22;33679;51.218;6.786;2022-10-31T08:18:34;18.70;99.90
10583;DHT22;33679;51.218;6.786;2022-10-31T08:21:05;18.70;99.90
10583;DHT22;33679;51.218;6.786;2022-10-31T08:23:32;18.70;99.90
10583;DHT22;33679;51.218;6.786;2022-10-31T08:26:00;18.80;99.90
10583;DHT22;33679;51.218;6.786;2022-10-31T08:28:31;18.80;99.90
10583;DHT22;33679;51.218;6.786;2022-10-31T08:30:58;18.80;99.90
10583;DHT22;33679;51.218;6.786;2022-10-31T08:33:41;18.80;99.90
10583;DHT22;33679;51.218;6.786;2022-10-31T08:36:27;18.80;99.90
10583;DHT22;33679;51.218;6.786;2022-10-31T08:39:14;18.90;99.90
10583;DHT22;33679;51.218;6.786;2022-10-31T08:41:44;18.90;99.90
10583;DHT22;33679;51.218;6.786;2022-10-31T08:44:14;18.90;99.90
10583;DHT22;33679;51.218;6.786;2022-10-31T08:46:42;19.00;99.90
10583;DHT22;33679;51.218;6.786;2022-10-31T08:49:09;19.00;99.90
10583;DHT22;33679;51.218;6.786;2022-10-31T08:51:47;19.10;99.90
10583;DHT22;33679;51.218;6.786;2022-10-31T08:54:15;19.10;99.90
10583;DHT22;33679;51.218;6.786;2022-10-31T08:56:53;19.20;99.90
10583;DHT22;33679;51.218;6.786;2022-10-31T08:59:33;19.10;99.90
10583;DHT22;33679;51.218;6.786;2022-10-31T09:02:19;19.10;99.90
10583;DHT22;33679;51.218;6.786;2022-10-31T09:04:49;19.10;99.90
10583;DHT22;33679;51.218;6.786;2022-10-31T09:07:16;19.10;99.90
10583;DHT22;33679;51.218;6.786;2022-10-31T09:09:44;19.20;99.90
10583;DHT22;33679;51.218;6.786;2022-10-31T09:12:12;19.20;99.90
10583;DHT22;33679;51.218;6.786;2022-10-31T09:14:59;19.20;99.90
10583;DHT22;33679;51.218;6.786;2022-10-31T09:17:47;19.30;99.90
10583;DHT22;33679;51.218;6.786;2022-10-31T09:20:36;19.30;99.90
10583;DHT22;33679;51.218;6.786;2022-10-31T09:23:06;19.30;99.90
10583;DHT22;33679;51.218;6.786;2022-10-31T09:25:37;19.40;99.90
10583;DHT22;33679;51.218;6.786;2022-10-31T09:28:31;19.40;99.90
10583;DHT22;33679;51.218;6.786;2022-10-31T09:31:07;19.50;99.90
10583;DHT22;33679;51.218;6.786;2022-10-31T09:33:53;19.50;99.90
10583;DHT22;33679;51.218;6.786;2022-10-31T09:36:43;19.50;99.90
10583;DHT22;33679;51.218;6.786;2022-10-31T09:39:19;19.60;99.90
10583;DHT22;33679;51.218;6.786;2022-10-31T09:42:04;19.50;99.90
10583;DHT22;33679;51.218;6.786;2022-10-31T09:44:46;19.50;99.90
10583;DHT22;33679;51.218;6.786;2022-10-31T09:47:36;19.60;99.90
10583;DHT22;33679;51.218;6.786;2022-10-31T09:50:38;19.60;99.90
10583;DHT22;33679;51.218;6.786;2022-10-31T09:53:29;19.50;99.90
10583;DHT22;33679;51.218;6.786;2022-10-31T09:55:59;19.50;99.90
10583;DHT22;33679;51.218;6.786;2022-10-31T09:58:29;19.60;99.90
10583;DHT22;33679;51.218;6.786;2022-10-31T10:00:59;19.60;99.90
10583;DHT22;33679;51.218;6.786;2022-10-31T10:03:33;19.60;99.90
10583;DHT22;33679;51.218;6.786;2022-10-31T10:06:22;19.60;99.90
10583;DHT22;33679;51.218;6.786;2022-10-31T10:09:14;19.50;99.90
10583;DHT22;33679;51.218;6.786;2022-10-31T10:12:15;19.50;99.90
10583;DHT22;33679;51.218;6.786;2022-10-31T10:15:04;19.50;99.90
10583;DHT22;33679;51.218;6.786;2022-10-31T10:17:42;19.60;99.90
10583;DHT22;33679;51.218;6.786;2022-10-31T10:20:30;19.60;99.90
10583;DHT22;33679;51.218;6.786;2022-10-31T10:23:13;19.60;99.90
10583;DHT22;33679;51.218;6.786;2022-10-31T10:25:50;19.60;99.90
10583;DHT22;33679;51.218;6.786;2022-10-31T10:28:23;19.50;99.90
10583;DHT22;33679;51.218;6.786;2022-10-31T10:30:57;19.50;99.90
10583;DHT22;33679;51.218;6.786;2022-10-31T10:33:30;19.60;99.90
10583;DHT22;33679;51.218;6.786;2022-10-31T10:36:06;19.50;99.90
10583;DHT22;33679;51.218;6.786;2022-10-31T10:38:38;19.60;99.90
10583;DHT22;33679;51.218;6.786;2022-10-31T10:41:16;19.60;99.90
10583;DHT22;33679;51.218;6.786;2022-10-31T10:43:50;19.70;99.90
10583;DHT22;33679;51.218;6.786;2022-10-31T10:46:26;19.80;99.90
10583;DHT22;33679;51.218;6.786;2022-10-31T10:49:18;19.90;99.90
10583;DHT22;33679;51.218;6.786;2022-10-31T10:51:52;19.90;99.90
10583;DHT22;33679;51.218;6.786;2022-10-31T10:57:37;20.10;99.90
10583;DHT22;33679;51.218;6.786;2022-10-31T11:00:21;20.20;99.90
10583;DHT22;33679;51.218;6.786;2022-10-31T11:02:54;20.20;99.90
10583;DHT22;33679;51.218;6.786;2022-10-31T11:05:30;20.20;99.90
10583;DHT22;33679;51.218;6.786;2022-10-31T11:08:06;20.20;99.90
10583;DHT22;33679;51.218;6.786;2022-10-31T11:10:35;20.30;99.90
10583;DHT22;33679;51.218;6.786;2022-10-31T11:13:21;20.40;99.90
10583;DHT22;33679;51.218;6.786;2022-10-31T11:18:44;20.50;99.90
10583;DHT22;33679;51.218;6.786;2022-10-31T11:21:22;20.60;99.90
10583;DHT22;33679;51.218;6.786;2022-10-31T11:24:03;20.60;99.90
10583;DHT22;33679;51.218;6.786;2022-10-31T11:26:42;20.80;99.90
10583;DHT22;33679;51.218;6.786;2022-10-31T11:29:23;20.90;99.90
10583;DHT22;33679;51.218;6.786;2022-10-31T11:31:58;21.00;99.90
10583;DHT22;33679;51.218;6.786;2022-10-31T11:34:30;21.10;99.90
10583;DHT22;33679;51.218;6.786;2022-10-31T11:37:09;21.20;99.90
10583;DHT22;33679;51.218;6.786;2022-10-31T11:39:53;21.20;99.90
10583;DHT22;33679;51.218;6.786;2022-10-31T11:42:26;21.30;99.90
10583;DHT22;33679;51.218;6.786;2022-10-31T11:45:02;21.30;99.90
10583;DHT22;33679;51.218;6.786;2022-10-31T11:47:34;21.40;99.90
10583;DHT22;33679;51.218;6.786;2022-10-31T11:50:10;21.40;99.90
10583;DHT22;33679;51.218;6.786;2022-10-31T11:52:43;21.50;99.90
10583;DHT22;33679;51.218;6.786;2022-10-31T11:55:17;21.50;99.90
10583;DHT22;33679;51.218;6.786;2022-10-31T11:57:57;21.60;99.90
10583;DHT22;33679;51.218;6.786;2022-10-31T12:00:29;21.60;99.90
10583;DHT22;33679;51.218;6.786;2022-10-31T12:03:32;21.50;99.90
10583;DHT22;33679;51.218;6.786;2022-10-31T12:06:08;21.60;99.90
10583;DHT22;33679;51.218;6.786;2022-10-31T12:08:43;21.60;99.90
10583;DHT22;33679;51.218;6.786;2022-10-31T12:11:31;21.70;99.90
10583;DHT22;33679;51.218;6.786;2022-10-31T12:14:16;21.80;99.90
10583;DHT22;33679;51.218;6.786;2022-10-31T12:16:50;21.80;99.90
10583;DHT22;33679;51.218;6.786;2022-10-31T12:19:34;21.80;99.90
10583;DHT22;33679;51.218;6.786;2022-10-31T12:22:19;21.90;99.90
10583;DHT22;33679;51.218;6.786;2022-10-31T12:25:14;21.80;99.90
10583;DHT22;33679;51.218;6.786;2022-10-31T12:28:11;21.90;99.90
10583;DHT22;33679;51.218;6.786;2022-10-31T12:30:54;21.90;99.90
10583;DHT22;33679;51.218;6.786;2022-10-31T12:33:36;21.90;99.90
10583;DHT22;33679;51.218;6.786;2022-10-31T12:36:26;21.90;99.90
10583;DHT22;33679;51.218;6.786;2022-10-31T12:39:19;21.90;99.90
10583;DHT22;33679;51.218;6.786;2022-10-31T12:41:58;21.90;99.90
10583;DHT22;33679;51.218;6.786;2022-10-31T12:48:01;21.90;99.90
10583;DHT22;33679;51.218;6.786;2022-10-31T12:50:47;21.90;99.90
10583;DHT22;33679;51.218;6.786;2022-10-31T12:53:31;21.80;99.90
10583;DHT22;33679;51.218;6.786;2022-10-31T12:56:17;21.90;99.90
10583;DHT22;33679;51.218;6.786;2022-10-31T12:58:51;21.90;99.90
10583;DHT22;33679;51.218;6.786;2022-10-31T13:01:26;21.90;99.90
10583;DHT22;33679;51.218;6.786;2022-10-31T13:04:02;21.90;99.90
10583;DHT22;33679;51.218;6.786;2022-10-31T13:06:34;21.90;99.90
10583;DHT22;33679;51.218;6.786;2022-10-31T13:09:05;22.00;99.90
10583;DHT22;33679;51.218;6.786;2022-10-31T13:11:41;22.00;99.90
10583;DHT22;33679;51.218;6.786;2022-10-31T13:14:16;22.00;99.90
10583;DHT22;33679;51.218;6.786;2022-10-31T13:16:50;22.00;99.90
10583;DHT22;33679;51.218;6.786;2022-10-31T13:19:22;21.90;99.90
10583;DHT22;33679;51.218;6.786;2022-10-31T13:21:58;21.90;99.90
10583;DHT22;33679;51.218;6.786;2022-10-31T13:24:38;22.00;99.90
10583;DHT22;33679;51.218;6.786;2022-10-31T13:27:22;22.00;99.90
10583;DHT22;33679;51.218;6.786;2022-10-31T13:29:58;22.10;99.90
10583;DHT22;33679;51.218;6.786;2022-10-31T13:32:37;22.10;99.90
10583;DHT22;33679;51.218;6.786;2022-10-31T13:35:14;22.10;99.90
10583;DHT22;33679;51.218;6.786;2022-10-31T13:37:55;22.20;99.90
10583;DHT22;33679;51.218;6.786;2022-10-31T13:40:37;22.20;99.90
10583;DHT22;33679;51.218;6.786;2022-10-31T13:43:10;22.10;99.90
10583;DHT22;33679;51.218;6.786;2022-10-31T13:45:50;22.10;99.90
10583;DHT22;33679;51.218;6.786;2022-10-31T13:48:37;22.20;99.90
10583;DHT22;33679;51.218;6.786;2022-10-31T13:51:09;22.20;99.90
10583;DHT22;33679;51.218;6.786;2022-10-31T13:53:56;22.20;99.90
10583;DHT22;33679;51.218;6.786;2022-10-31T13:56:27;22.30;99.90
10583;DHT22;33679;51.218;6.786;2022-10-31T13:59:11;22.30;99.90
10583;DHT22;33679;51.218;6.786;2022-10-31T14:01:52;22.30;99.90
10583;DHT22;33679;51.218;6.786;2022-10-31T14:04:24;22.30;99.90
10583;DHT22;33679;51.218;6.786;2022-10-31T14:07:04;22.30;99.90
10583;DHT22;33679;51.218;6.786;2022-10-31T14:09:37;22.40;99.90
10583;DHT22;33679;51.218;6.786;2022-10-31T14:12:08;22.30;99.90
10583;DHT22;33679;51.218;6.786;2022-10-31T14:14:46;22.30;99.90
10583;DHT22;33679;51.218;6.786;2022-10-31T14:17:22;22.20;99.90
10583;DHT22;33679;51.218;6.786;2022-10-31T14:20:21;22.20;99.90
10583;DHT22;33679;51.218;6.786;2022-10-31T14:22:49;22.20;99.90
10583;DHT22;33679;51.218;6.786;2022-10-31T14:25:31;22.20;99.90
10583;DHT22;33679;51.218;6.786;2022-10-31T14:28:03;22.20;99.90
10583;DHT22;33679;51.218;6.786;2022-10-31T14:30:53;22.10;99.90
10583;DHT22;33679;51.218;6.786;2022-10-31T14:33:26;22.20;99.90
10583;DHT22;33679;51.218;6.786;2022-10-31T14:36:00;22.20;99.90
10583;DHT22;33679;51.218;6.786;2022-10-31T14:41:50;22.10;99.90
10583;DHT22;33679;51.218;6.786;2022-10-31T14:45:05;22.10;99.90
10583;DHT22;33679;51.218;6.786;2022-10-31T14:47:42;22.00;99.90
10583;DHT22;33679;51.218;6.786;2022-10-31T14:50:34;21.90;99.90
10583;DHT22;33679;51.218;6.786;2022-10-31T14:53:05;22.00;99.90
10583;DHT22;33679;51.218;6.786;2022-10-31T14:55:35;21.90;99.90
10583;DHT22;33679;51.218;6.786;2022-10-31T14:58:09;21.90;99.90
10583;DHT22;33679;51.218;6.786;2022-10-31T15:00:44;21.90;99.90
10583;DHT22;33679;51.218;6.786;2022-10-31T15:03:15;22.00;99.90
10583;DHT22;33679;51.218;6.786;2022-10-31T15:05:48;21.90;99.90
10583;DHT22;33679;51.218;6.786;2022-10-31T15:08:38;21.90;99.90
10583;DHT22;33679;51.218;6.786;2022-10-31T15:11:13;21.90;99.90
10583;DHT22;33679;51.218;6.786;2022-10-31T15:13:42;21.90;99.90
10583;DHT22;33679;51.218;6.786;2022-10-31T15:16:25;21.90;99.90
10583;DHT22;33679;51.218;6.786;2022-10-31T15:18:57;21.80;99.90
10583;DHT22;33679;51.218;6.786;2022-10-31T15:21:28;21.90;99.90
10583;DHT22;33679;51.218;6.786;2022-10-31T15:24:00;21.80;99.90
10583;DHT22;33679;51.218;6.786;2022-10-31T15:26:34;21.80;99.90
10583;DHT22;33679;51.218;6.786;2022-10-31T15:29:04;21.80;99.90
10583;DHT22;33679;51.218;6.786;2022-10-31T15:31:48;21.70;99.90
10583;DHT22;33679;51.218;6.786;2022-10-31T15:34:38;21.70;99.90
10583;DHT22;33679;51.218;6.786;2022-10-31T15:37:18;21.70;99.90
10583;DHT22;33679;51.218;6.786;2022-10-31T15:39:53;21.80;99.90
10583;DHT22;33679;51.218;6.786;2022-10-31T15:42:29;21.80;99.90
10583;DHT22;33679;51.218;6.786;2022-10-31T15:45:00;21.90;99.90
10583;DHT22;33679;51.218;6.786;2022-10-31T15:47:30;21.80;99.90
10583;DHT22;33679;51.218;6.786;2022-10-31T15:49:59;21.80;99.90
10583;DHT22;33679;51.218;6.786;2022-10-31T15:52:31;21.80;99.90
10583;DHT22;33679;51.218;6.786;2022-10-31T15:55:04;21.70;99.90
10583;DHT22;33679;51.218;6.786;2022-10-31T15:57:39;21.80;99.90
10583;DHT22;33679;51.218;6.786;2022-10-31T16:00:23;21.70;99.90
10583;DHT22;33679;51.218;6.786;2022-10-31T16:03:03;21.70;99.90
10583;DHT22;33679;51.218;6.786;2022-10-31T16:05:36;21.70;99.90
10583;DHT22;33679;51.218;6.786;2022-10-31T16:08:04;21.60;99.90
10583;DHT22;33679;51.218;6.786;2022-10-31T16:11:31;21.60;99.90
10583;DHT22;33679;51.218;6.786;2022-10-31T16:15:18;21.60;99.90
10583;DHT22;33679;51.218;6.786;2022-10-31T16:18:34;21.60;99.90
10583;DHT22;33679;51.218;6.786;2022-10-31T16:21:28;21.70;99.90
10583;DHT22;33679;51.218;6.786;2022-10-31T16:24:03;21.80;99.90
10583;DHT22;33679;51.218;6.786;2022-10-31T16:40:01;21.90;99.90
10583;DHT22;33679;51.218;6.786;2022-10-31T16:42:31;21.70;99.90
10583;DHT22;33679;51.218;6.786;2022-10-31T16:44:59;21.60;99.90
10583;DHT22;33679;51.218;6.786;2022-10-31T16:47:47;21.70;99.90
10583;DHT22;33679;51.218;6.786;2022-10-31T16:50:23;21.70;99.90